createdAt,value
2022-09-10T00:00:39.177Z,90.43
2022-09-10T00:01:41.116Z,90.72
2022-09-10T00:02:43.295Z,90.72
2022-09-10T00:03:45.272Z,91.19
2022-09-10T00:04:47.358Z,91.08
2022-09-10T00:05:49.390Z,90.68
2022-09-10T00:06:51.636Z,91.11
2022-09-10T00:07:53.705Z,91.17
2022-09-10T00:08:56.714Z,91.47
2022-09-10T00:09:58.638Z,91.39
2022-09-10T00:11:02.422Z,91.59
2022-09-10T00:12:04.355Z,91.63
2022-09-10T00:13:06.480Z,91.87
2022-09-10T00:14:10.548Z,92.26
2022-09-10T00:15:12.811Z,92.38
2022-09-10T00:16:15.859Z,92.15
2022-09-10T00:17:18.076Z,92.07
2022-09-10T00:18:21.251Z,92.18
2022-09-10T00:19:23.152Z,92.45
2022-09-10T00:20:25.281Z,92.84
2022-09-10T00:21:27.676Z,92.70
2022-09-10T00:22:29.450Z,92.30
2022-09-10T00:23:31.633Z,92.49
2022-09-10T00:24:33.638Z,92.41
2022-09-10T00:25:35.699Z,92.77
2022-09-10T00:26:37.574Z,92.80
2022-09-10T00:27:39.451Z,92.40
2022-09-10T00:28:41.592Z,92.10
2022-09-10T00:29:43.412Z,92.45
2022-09-10T00:30:47.192Z,92.52
2022-09-10T00:31:49.118Z,92.70
2022-09-10T00:32:51.049Z,92.99
2022-09-10T00:33:53.079Z,92.88
2022-09-10T00:34:54.905Z,92.99
2022-09-10T00:35:57.040Z,93.19
2022-09-10T00:36:58.762Z,93.01
2022-09-10T00:38:01.211Z,93.09
2022-09-10T00:39:08.353Z,92.75
2022-09-10T00:40:10.547Z,93.20
2022-09-10T00:41:13.191Z,93.23
2022-09-10T00:42:15.192Z,93.32
2022-09-10T00:43:19.193Z,93.57
2022-09-10T00:44:38.294Z,93.99
2022-09-10T00:45:41.024Z,94.05
2022-09-10T00:46:45.113Z,94.10
2022-09-10T00:47:47.974Z,94.71
2022-09-10T00:48:50.509Z,95.02
2022-09-10T00:49:54.290Z,95.12
2022-09-10T00:50:58.289Z,95.23
2022-09-10T00:52:00.869Z,95.37
2022-09-10T00:53:04.486Z,95.70
2022-09-10T00:54:07.418Z,96.13
2022-09-10T00:55:10.925Z,96.27
2022-09-10T00:56:13.210Z,95.94
2022-09-10T00:57:17.096Z,96.04
2022-09-10T00:58:20.254Z,96.42
2022-09-10T00:59:23.938Z,96.51
2022-09-10T01:00:26.374Z,96.67
2022-09-10T01:01:28.567Z,96.61
2022-09-10T01:02:30.767Z,96.89
2022-09-10T01:03:32.621Z,96.73
2022-09-10T01:04:35.425Z,96.71
2022-09-10T01:05:37.870Z,96.92
2022-09-10T01:06:40.276Z,96.71
2022-09-10T01:07:42.680Z,96.64
2022-09-10T01:08:44.696Z,96.38
2022-09-10T01:09:47.278Z,96.47
2022-09-10T01:10:51.060Z,96.20
2022-09-10T01:11:54.803Z,96.31
2022-09-10T01:13:04.579Z,96.16
2022-09-10T01:14:25.226Z,95.92
2022-09-10T01:15:44.151Z,96.21
2022-09-10T01:16:57.052Z,95.95
2022-09-10T01:18:03.740Z,96.03
2022-09-10T01:19:13.687Z,96.33
2022-09-10T01:20:17.519Z,96.45
2022-09-10T01:21:21.348Z,96.78
2022-09-10T01:22:42.394Z,97.01
2022-09-10T01:24:01.273Z,96.94
2022-09-10T01:25:07.975Z,97.07
2022-09-10T01:26:14.600Z,97.15
2022-09-10T01:27:35.129Z,97.48
2022-09-10T01:28:39.162Z,97.43
2022-09-10T01:29:45.811Z,97.40
2022-09-10T01:30:49.551Z,97.23
2022-09-10T01:31:53.304Z,97.01
2022-09-10T01:33:15.425Z,97.11
2022-09-10T01:34:25.452Z,97.42
2022-09-10T01:35:47.687Z,97.64
2022-09-10T01:36:51.512Z,97.81
2022-09-10T01:37:55.138Z,97.92
2022-09-10T01:38:57.098Z,97.88
2022-09-10T01:39:59.607Z,97.91
2022-09-10T01:41:01.595Z,97.80
2022-09-10T01:42:04.119Z,97.75
2022-09-10T01:43:07.505Z,97.63
2022-09-10T01:44:10.637Z,97.74
2022-09-10T01:45:13.887Z,97.81
2022-09-10T01:46:17.974Z,97.84
2022-09-10T01:47:22.024Z,97.86
2022-09-10T01:48:25.837Z,97.90
2022-09-10T01:49:44.959Z,97.50
2022-09-10T01:50:48.762Z,97.25
2022-09-10T01:51:58.609Z,97.25
2022-09-10T01:53:19.141Z,97.29
2022-09-10T01:54:25.803Z,97.36
2022-09-10T01:55:44.630Z,97.52
2022-09-10T01:57:05.217Z,97.51
2022-09-10T01:58:18.363Z,97.36
2022-09-10T01:59:22.327Z,97.36
2022-09-10T02:00:25.134Z,97.40
2022-09-10T02:01:34.980Z,97.54
2022-09-10T02:02:38.861Z,97.46
2022-09-10T02:03:42.667Z,97.34
2022-09-10T02:04:46.419Z,97.54
2022-09-10T02:05:50.043Z,97.43
2022-09-10T02:06:52.135Z,97.59
2022-09-10T02:07:55.958Z,97.67
2022-09-10T02:08:58.864Z,97.94
2022-09-10T02:10:02.235Z,98.10
2022-09-10T02:11:04.956Z,98.37
2022-09-10T02:12:07.270Z,98.08
2022-09-10T02:13:09.146Z,98.27
2022-09-10T02:14:11.077Z,98.37
2022-09-10T02:15:13.414Z,98.24
2022-09-10T02:16:26.265Z,98.16
2022-09-10T02:17:30.019Z,98.18
2022-09-10T02:18:32.465Z,98.17
2022-09-10T02:19:34.548Z,98.20
2022-09-10T02:20:36.949Z,98.34
2022-09-10T02:21:39.071Z,98.22
2022-09-10T02:22:52.271Z,98.19
2022-09-10T02:23:55.941Z,98.18
2022-09-10T02:24:57.965Z,98.39
2022-09-10T02:26:00.149Z,98.44
2022-09-10T02:27:02.283Z,98.26
2022-09-10T02:28:05.347Z,98.46
2022-09-10T02:29:08.110Z,98.36
2022-09-10T02:30:10.854Z,98.45
2022-09-10T02:31:12.806Z,98.40
2022-09-10T02:32:15.323Z,98.31
2022-09-10T02:33:17.353Z,98.18
2022-09-10T02:34:19.281Z,98.36
2022-09-10T02:35:21.365Z,98.42
2022-09-10T02:36:23.447Z,98.40
2022-09-10T02:37:25.439Z,98.52
2022-09-10T02:38:27.676Z,98.75
2022-09-10T02:39:30.377Z,98.89
2022-09-10T02:40:32.255Z,99.10
2022-09-10T02:41:34.849Z,99.29
2022-09-10T02:42:37.049Z,99.30
2022-09-10T02:43:39.050Z,99.61
2022-09-10T02:44:40.842Z,99.60
2022-09-10T02:45:43.385Z,99.91
2022-09-10T02:46:45.155Z,100.00
2022-09-10T02:47:46.947Z,100.00
2022-09-10T02:48:48.766Z,100.00
2022-09-10T02:49:50.648Z,100.00
2022-09-10T02:50:53.034Z,100.00
2022-09-10T02:51:54.863Z,100.00
2022-09-10T02:52:56.866Z,100.00
2022-09-10T02:53:58.629Z,100.00
2022-09-10T02:55:00.448Z,100.00
2022-09-10T02:56:02.804Z,100.00
2022-09-10T02:57:04.910Z,100.00
2022-09-10T02:58:06.747Z,100.00
2022-09-10T02:59:08.621Z,100.00
2022-09-10T03:00:11.011Z,100.00
2022-09-10T03:01:15.265Z,100.00
2022-09-10T03:02:17.363Z,100.00
2022-09-10T03:03:19.522Z,100.00
2022-09-10T03:04:21.582Z,100.00
2022-09-10T03:05:23.624Z,100.00
2022-09-10T03:06:26.646Z,100.00
2022-09-10T03:07:28.677Z,100.00
2022-09-10T03:08:30.936Z,100.00
2022-09-10T03:09:33.047Z,100.00
2022-09-10T03:10:36.118Z,100.00
2022-09-10T03:11:38.089Z,100.00
2022-09-10T03:12:39.917Z,100.00
2022-09-10T03:13:42.615Z,100.00
2022-09-10T03:14:44.387Z,100.00
2022-09-10T03:15:46.493Z,100.00
2022-09-10T03:16:48.865Z,100.00
2022-09-10T03:17:51.168Z,100.00
2022-09-10T03:18:53.190Z,100.00
2022-09-10T03:19:55.238Z,100.00
2022-09-10T03:20:58.999Z,100.00
2022-09-10T03:22:01.701Z,100.00
2022-09-10T03:23:03.691Z,100.00
2022-09-10T03:24:05.713Z,100.00
2022-09-10T03:25:07.688Z,100.00
2022-09-10T03:26:10.385Z,100.00
2022-09-10T03:27:12.376Z,100.00
2022-09-10T03:28:14.247Z,100.00
2022-09-10T03:29:16.226Z,100.00
2022-09-10T03:30:18.233Z,100.00
2022-09-10T03:31:20.200Z,100.00
2022-09-10T03:32:22.093Z,100.00
2022-09-10T03:33:24.244Z,100.00
2022-09-10T03:34:26.452Z,100.00
2022-09-10T03:35:28.771Z,100.00
2022-09-10T03:36:31.009Z,100.00
2022-09-10T03:37:32.973Z,100.00
2022-09-10T03:38:34.843Z,100.00
2022-09-10T03:39:36.884Z,100.00
2022-09-10T03:40:38.927Z,100.00
2022-09-10T03:41:41.216Z,100.00
2022-09-10T03:42:43.404Z,100.00
2022-09-10T03:43:45.167Z,100.00
2022-09-10T03:44:47.156Z,100.00
2022-09-10T03:45:50.016Z,100.00
2022-09-10T03:46:52.145Z,100.00
2022-09-10T03:47:54.024Z,100.00
2022-09-10T03:48:55.989Z,100.00
2022-09-10T03:49:57.946Z,100.00
2022-09-10T03:50:59.917Z,100.00
2022-09-10T03:52:02.209Z,100.00
2022-09-10T03:53:04.210Z,100.00
2022-09-10T03:54:06.213Z,100.00
2022-09-10T03:55:08.501Z,100.00
2022-09-10T03:56:10.726Z,100.00
2022-09-10T03:57:12.685Z,100.00
2022-09-10T03:58:15.262Z,100.00
2022-09-10T03:59:17.246Z,100.00
2022-09-10T04:00:19.275Z,100.00
2022-09-10T04:01:21.315Z,100.00
2022-09-10T04:02:23.373Z,100.00
2022-09-10T04:03:25.282Z,100.00
2022-09-10T04:04:27.095Z,100.00
2022-09-10T04:05:28.925Z,100.00
2022-09-10T04:06:31.209Z,100.00
2022-09-10T04:07:33.496Z,100.00
2022-09-10T04:08:35.567Z,100.00
2022-09-10T04:09:37.974Z,100.00
2022-09-10T04:10:40.881Z,100.00
2022-09-10T04:11:42.702Z,100.00
2022-09-10T04:12:44.509Z,100.00
2022-09-10T04:13:46.817Z,100.00
2022-09-10T04:14:48.678Z,100.00
2022-09-10T04:15:50.578Z,100.00
2022-09-10T04:16:52.762Z,100.00
2022-09-10T04:17:54.587Z,100.00
2022-09-10T04:18:56.718Z,100.00
2022-09-10T04:19:58.814Z,100.00
2022-09-10T04:21:00.575Z,100.00
2022-09-10T04:22:02.410Z,100.00
2022-09-10T04:23:04.950Z,100.00
2022-09-10T04:24:06.984Z,100.00
2022-09-10T04:25:08.807Z,100.00
2022-09-10T04:26:14.897Z,100.00
2022-09-10T04:27:17.091Z,100.00
2022-09-10T04:28:18.860Z,100.00
2022-09-10T04:29:20.687Z,100.00
2022-09-10T04:30:22.922Z,100.00
2022-09-10T04:31:24.829Z,100.00
2022-09-10T04:32:26.730Z,100.00
2022-09-10T04:33:28.756Z,100.00
2022-09-10T04:34:30.656Z,100.00
2022-09-10T04:35:32.516Z,100.00
2022-09-10T04:36:34.409Z,100.00
2022-09-10T04:37:36.332Z,100.00
2022-09-10T04:38:38.212Z,100.00
2022-09-10T04:39:40.098Z,100.00
2022-09-10T04:40:43.342Z,100.00
2022-09-10T04:41:45.273Z,100.00
2022-09-10T04:42:47.199Z,100.00
2022-09-10T04:43:49.034Z,100.00
2022-09-10T04:44:51.475Z,100.00
2022-09-10T04:45:54.512Z,100.00
2022-09-10T04:46:56.458Z,100.00
2022-09-10T04:47:58.205Z,100.00
2022-09-10T04:49:00.163Z,100.00
2022-09-10T04:50:02.300Z,100.00
2022-09-10T04:51:16.301Z,100.00
2022-09-10T04:52:07.900Z,100.00
2022-09-10T04:53:10.102Z,100.00
2022-09-10T04:54:12.064Z,100.00
2022-09-10T04:55:14.149Z,100.00
2022-09-10T04:56:16.642Z,100.00
2022-09-10T04:57:18.470Z,100.00
2022-09-10T04:58:20.601Z,100.00
2022-09-10T04:59:22.591Z,100.00
2022-09-10T05:00:24.616Z,100.00
2022-09-10T05:01:27.337Z,100.00
2022-09-10T05:02:29.380Z,100.00
2022-09-10T05:03:31.473Z,100.00
2022-09-10T05:04:33.568Z,100.00
2022-09-10T05:05:35.391Z,100.00
2022-09-10T05:06:37.420Z,100.00
2022-09-10T05:07:39.348Z,100.00
2022-09-10T05:08:41.336Z,100.00
2022-09-10T05:09:43.667Z,100.00
2022-09-10T05:10:45.702Z,100.00
2022-09-10T05:11:47.580Z,100.00
2022-09-10T05:12:49.412Z,100.00
2022-09-10T05:13:51.237Z,100.00
2022-09-10T05:14:53.214Z,100.00
2022-09-10T05:15:54.970Z,100.00
2022-09-10T05:16:56.941Z,100.00
2022-09-10T05:17:58.951Z,100.00
2022-09-10T05:19:00.811Z,100.00
2022-09-10T05:20:03.532Z,100.00
2022-09-10T05:21:05.714Z,100.00
2022-09-10T05:22:07.539Z,100.00
2022-09-10T05:23:09.775Z,100.00
2022-09-10T05:24:11.810Z,100.00
2022-09-10T05:25:13.842Z,100.00
2022-09-10T05:26:16.425Z,100.00
2022-09-10T05:27:18.579Z,100.00
2022-09-10T05:28:20.500Z,100.00
2022-09-10T05:29:22.383Z,100.00
2022-09-10T05:30:24.249Z,100.00
2022-09-10T05:31:26.334Z,100.00
2022-09-10T05:32:28.216Z,100.00
2022-09-10T05:33:30.092Z,100.00
2022-09-10T05:34:31.975Z,100.00
2022-09-10T05:35:33.950Z,100.00
2022-09-10T05:36:35.932Z,100.00
2022-09-10T05:37:37.805Z,100.00
2022-09-10T05:38:40.313Z,100.00
2022-09-10T05:39:42.407Z,100.00
2022-09-10T05:40:44.377Z,100.00
2022-09-10T05:41:46.604Z,100.00
2022-09-10T05:42:48.640Z,100.00
2022-09-10T05:43:50.716Z,100.00
2022-09-10T05:44:52.560Z,100.00
2022-09-10T05:45:54.536Z,100.00
2022-09-10T05:46:56.553Z,100.00
2022-09-10T05:47:58.532Z,100.00
2022-09-10T05:49:00.387Z,100.00
2022-09-10T05:50:02.832Z,100.00
2022-09-10T05:51:04.577Z,100.00
2022-09-10T05:52:06.516Z,100.00
2022-09-10T05:53:08.457Z,100.00
2022-09-10T05:54:10.321Z,100.00
2022-09-10T05:55:12.582Z,100.00
2022-09-10T05:56:14.678Z,100.00
2022-09-10T05:57:16.506Z,100.00
2022-09-10T05:58:18.490Z,100.00
2022-09-10T05:59:20.375Z,100.00
2022-09-10T06:00:22.507Z,100.00
2022-09-10T06:01:24.499Z,100.00
2022-09-10T06:02:26.581Z,100.00
2022-09-10T06:03:28.395Z,100.00
2022-09-10T06:04:30.339Z,100.00
2022-09-10T06:05:32.208Z,100.00
2022-09-10T06:06:34.079Z,100.00
2022-09-10T06:07:36.059Z,100.00
2022-09-10T06:08:38.174Z,100.00
2022-09-10T06:09:40.148Z,100.00
2022-09-10T06:10:42.155Z,100.00
2022-09-10T06:11:44.587Z,100.00
2022-09-10T06:12:47.259Z,100.00
2022-09-10T06:13:50.206Z,100.00
2022-09-10T06:14:52.285Z,100.00
2022-09-10T06:15:54.253Z,100.00
2022-09-10T06:16:56.097Z,100.00
2022-09-10T06:17:58.127Z,100.00
2022-09-10T06:18:59.951Z,100.00
2022-09-10T06:20:02.404Z,100.00
2022-09-10T06:21:06.467Z,100.00
2022-09-10T06:22:08.360Z,100.00
2022-09-10T06:23:10.351Z,100.00
2022-09-10T06:24:13.004Z,100.00
2022-09-10T06:25:14.863Z,100.00
2022-09-10T06:26:16.911Z,100.00
2022-09-10T06:27:18.906Z,100.00
2022-09-10T06:28:21.012Z,100.00
2022-09-10T06:29:23.096Z,100.00
2022-09-10T06:30:25.114Z,100.00
2022-09-10T06:31:27.065Z,100.00
2022-09-10T06:32:29.033Z,100.00
2022-09-10T06:33:31.734Z,100.00
2022-09-10T06:34:33.587Z,100.00
2022-09-10T06:35:35.558Z,100.00
2022-09-10T06:36:37.699Z,100.00
2022-09-10T06:37:39.806Z,100.00
2022-09-10T06:38:41.663Z,100.00
2022-09-10T06:39:43.577Z,100.00
2022-09-10T06:40:52.775Z,100.00
2022-09-10T06:41:54.698Z,100.00
2022-09-10T06:42:58.680Z,100.00
2022-09-10T06:44:00.909Z,100.00
2022-09-10T06:45:03.232Z,100.00
2022-09-10T06:46:20.250Z,100.00
2022-09-10T06:47:55.836Z,100.00
2022-09-10T06:48:38.085Z,100.00
2022-09-10T06:49:20.484Z,100.00
2022-09-10T06:50:22.798Z,100.00
2022-09-10T06:51:24.677Z,100.00
2022-09-10T06:52:28.354Z,100.00
2022-09-10T06:53:30.597Z,100.00
2022-09-10T06:54:32.524Z,100.00
2022-09-10T06:55:34.761Z,100.00
2022-09-10T06:56:36.633Z,100.00
2022-09-10T06:57:38.408Z,100.00
2022-09-10T06:58:40.637Z,100.00
2022-09-10T06:59:43.046Z,100.00
2022-09-10T07:00:46.822Z,100.00
2022-09-10T07:01:48.725Z,100.00
2022-09-10T07:02:51.700Z,100.00
2022-09-10T07:03:54.728Z,100.00
2022-09-10T07:04:56.530Z,100.00
2022-09-10T07:06:00.474Z,100.00
2022-09-10T07:07:02.374Z,100.00
2022-09-10T07:08:04.335Z,100.00
2022-09-10T07:09:06.263Z,100.00
2022-09-10T07:10:08.760Z,100.00
2022-09-10T07:11:11.656Z,100.00
2022-09-10T07:12:13.574Z,100.00
2022-09-10T07:13:15.548Z,100.00
2022-09-10T07:14:17.889Z,100.00
2022-09-10T07:15:19.688Z,100.00
2022-09-10T07:16:24.483Z,100.00
2022-09-10T07:17:31.107Z,100.00
2022-09-10T07:18:30.460Z,100.00
2022-09-10T07:19:34.274Z,100.00
2022-09-10T07:20:36.569Z,100.00
2022-09-10T07:21:38.589Z,100.00
2022-09-10T07:22:40.407Z,100.00
2022-09-10T07:23:43.549Z,100.00
2022-09-10T07:24:47.067Z,100.00
2022-09-10T07:25:48.990Z,100.00
2022-09-10T07:26:50.996Z,100.00
2022-09-10T07:27:53.067Z,100.00
2022-09-10T07:28:55.254Z,100.00
2022-09-10T07:29:57.265Z,100.00
2022-09-10T07:30:59.388Z,100.00
2022-09-10T07:32:01.836Z,100.00
2022-09-10T07:33:03.580Z,100.00
2022-09-10T07:34:05.394Z,100.00
2022-09-10T07:35:07.495Z,100.00
2022-09-10T07:36:10.024Z,100.00
2022-09-10T07:37:12.159Z,100.00
2022-09-10T07:38:14.042Z,100.00
2022-09-10T07:39:16.007Z,100.00
2022-09-10T07:40:18.383Z,100.00
2022-09-10T07:41:20.634Z,100.00
2022-09-10T07:42:22.462Z,100.00
2022-09-10T07:43:24.442Z,100.00
2022-09-10T07:44:26.339Z,100.00
2022-09-10T07:45:28.268Z,100.00
2022-09-10T07:46:30.355Z,100.00
2022-09-10T07:47:32.346Z,100.00
2022-09-10T07:48:34.307Z,100.00
2022-09-10T07:49:36.121Z,100.00
2022-09-10T07:50:38.080Z,100.00
2022-09-10T07:51:40.185Z,100.00
2022-09-10T07:52:42.215Z,100.00
2022-09-10T07:53:50.648Z,100.00
2022-09-10T07:54:48.796Z,100.00
2022-09-10T07:55:52.526Z,100.00
2022-09-10T07:56:54.870Z,100.00
2022-09-10T07:57:59.960Z,100.00
2022-09-10T07:59:00.744Z,100.00
2022-09-10T08:00:07.177Z,100.00
2022-09-10T08:01:09.920Z,100.00
2022-09-10T08:02:13.758Z,100.00
2022-09-10T08:03:15.741Z,100.00
2022-09-10T08:04:17.722Z,100.00
2022-09-10T08:05:19.571Z,100.00
2022-09-10T08:06:22.422Z,100.00
2022-09-10T08:07:24.975Z,100.00
2022-09-10T08:08:30.830Z,100.00
2022-09-10T08:09:32.716Z,100.00
2022-09-10T08:10:34.537Z,100.00
2022-09-10T08:11:38.357Z,100.00
2022-09-10T08:12:40.564Z,100.00
2022-09-10T08:13:43.968Z,100.00
2022-09-10T08:14:45.951Z,100.00
2022-09-10T08:15:47.841Z,100.00
2022-09-10T08:16:49.602Z,100.00
2022-09-10T08:17:51.478Z,100.00
2022-09-10T08:18:54.227Z,100.00
2022-09-10T08:19:56.544Z,100.00
2022-09-10T08:20:58.552Z,100.00
2022-09-10T08:22:00.589Z,100.00
2022-09-10T08:23:02.590Z,100.00
2022-09-10T08:24:04.795Z,100.00
2022-09-10T08:25:07.399Z,100.00
2022-09-10T08:26:09.736Z,100.00
2022-09-10T08:27:11.642Z,100.00
2022-09-10T08:28:14.263Z,100.00
2022-09-10T08:29:16.155Z,100.00
2022-09-10T08:30:18.326Z,100.00
2022-09-10T08:31:20.260Z,100.00
2022-09-10T08:32:22.183Z,100.00
2022-09-10T08:33:24.938Z,100.00
2022-09-10T08:34:27.148Z,100.00
2022-09-10T08:35:29.358Z,100.00
2022-09-10T08:36:31.441Z,100.00
2022-09-10T08:37:33.380Z,100.00
2022-09-10T08:38:37.061Z,100.00
2022-09-10T08:39:39.194Z,100.00
2022-09-10T08:40:42.036Z,100.00
2022-09-10T08:41:45.973Z,100.00
2022-09-10T08:42:49.297Z,100.00
2022-09-10T08:43:53.115Z,100.00
2022-09-10T08:44:59.886Z,100.00
2022-09-10T08:46:03.655Z,100.00
2022-09-10T08:47:24.424Z,100.00
2022-09-10T08:48:28.269Z,100.00
2022-09-10T08:49:47.223Z,100.00
2022-09-10T08:50:57.210Z,100.00
2022-09-10T08:52:01.042Z,100.00
2022-09-10T08:53:13.711Z,100.00
2022-09-10T08:54:17.441Z,100.00
2022-09-10T08:55:21.375Z,100.00
2022-09-10T08:56:24.593Z,100.00
2022-09-10T08:57:40.669Z,100.00
2022-09-10T08:58:44.329Z,100.00
2022-09-10T08:59:47.549Z,100.00
2022-09-10T09:00:51.444Z,100.00
2022-09-10T09:01:58.397Z,100.00
2022-09-10T09:03:08.299Z,100.00
2022-09-10T09:04:12.368Z,100.00
2022-09-10T09:05:18.973Z,100.00
2022-09-10T09:06:25.992Z,100.00
2022-09-10T09:07:29.821Z,100.00
2022-09-10T09:08:36.803Z,100.00
2022-09-10T09:09:38.871Z,100.00
2022-09-10T09:10:45.376Z,100.00
2022-09-10T09:11:49.368Z,100.00
2022-09-10T09:13:10.368Z,100.00
2022-09-10T09:14:14.084Z,100.00
2022-09-10T09:15:20.894Z,100.00
2022-09-10T09:16:24.985Z,100.00
2022-09-10T09:17:43.880Z,100.00
2022-09-10T09:18:59.828Z,100.00
2022-09-10T09:20:18.358Z,100.00
2022-09-10T09:21:22.199Z,100.00
2022-09-10T09:22:32.240Z,100.00
2022-09-10T09:24:11.767Z,100.00
2022-09-10T09:25:02.675Z,100.00
2022-09-10T09:27:18.804Z,100.00
2022-09-10T09:28:22.585Z,100.00
2022-09-10T09:29:35.305Z,100.00
2022-09-10T09:30:39.189Z,100.00
2022-09-10T09:31:43.121Z,100.00
2022-09-10T09:32:46.086Z,100.00
2022-09-10T09:33:49.599Z,100.00
2022-09-10T09:34:56.260Z,100.00
2022-09-10T09:36:04.460Z,100.00
2022-09-10T09:37:17.089Z,100.00
2022-09-10T09:38:20.912Z,100.00
2022-09-10T09:39:25.779Z,100.00
2022-09-10T09:40:32.886Z,100.00
2022-09-10T09:41:42.559Z,100.00
2022-09-10T09:42:46.409Z,100.00
2022-09-10T09:43:50.133Z,100.00
2022-09-10T09:45:08.971Z,100.00
2022-09-10T09:46:12.839Z,100.00
2022-09-10T09:47:15.006Z,100.00
2022-09-10T09:48:18.101Z,100.00
2022-09-10T09:49:19.981Z,100.00
2022-09-10T09:50:22.706Z,100.00
2022-09-10T09:51:24.660Z,100.00
2022-09-10T09:52:28.336Z,100.00
2022-09-10T09:53:30.310Z,100.00
2022-09-10T09:55:03.311Z,100.00
2022-09-10T09:55:40.799Z,100.00
2022-09-10T09:56:44.478Z,100.00
2022-09-10T09:57:46.513Z,100.00
2022-09-10T09:58:49.818Z,100.00
2022-09-10T09:59:51.757Z,100.00
2022-09-10T10:01:05.054Z,100.00
2022-09-10T10:02:14.954Z,100.00
2022-09-10T10:03:21.674Z,100.00
2022-09-10T10:04:25.367Z,100.00
2022-09-10T10:05:27.520Z,100.00
2022-09-10T10:06:30.773Z,100.00
2022-09-10T10:07:34.040Z,100.00
2022-09-10T10:08:40.827Z,100.00
2022-09-10T10:09:43.447Z,100.00
2022-09-10T10:10:47.186Z,100.00
2022-09-10T10:11:53.938Z,100.00
2022-09-10T10:12:55.861Z,100.00
2022-09-10T10:14:00.001Z,100.00
2022-09-10T10:15:02.335Z,100.00
2022-09-10T10:16:15.506Z,100.00
2022-09-10T10:17:28.347Z,100.00
2022-09-10T10:18:30.762Z,100.00
2022-09-10T10:19:37.502Z,100.00
2022-09-10T10:20:39.410Z,100.00
2022-09-10T10:21:41.511Z,100.00
2022-09-10T10:22:44.536Z,100.00
2022-09-10T10:23:46.808Z,100.00
2022-09-10T10:24:49.816Z,100.00
2022-09-10T10:25:51.638Z,100.00
2022-09-10T10:26:53.528Z,100.00
2022-09-10T10:27:55.449Z,100.00
2022-09-10T10:29:02.343Z,100.00
2022-09-10T10:30:18.632Z,100.00
2022-09-10T10:31:20.845Z,100.00
2022-09-10T10:32:24.675Z,100.00
2022-09-10T10:33:28.279Z,100.00
2022-09-10T10:34:32.032Z,100.00
2022-09-10T10:35:41.603Z,100.00
2022-09-10T10:36:48.274Z,100.00
2022-09-10T10:37:55.196Z,100.00
2022-09-10T10:38:58.866Z,100.00
2022-09-10T10:40:12.189Z,100.00
2022-09-10T10:41:31.246Z,100.00
2022-09-10T10:42:35.254Z,100.00
2022-09-10T10:43:48.075Z,100.00
2022-09-10T10:45:10.346Z,100.00
2022-09-10T10:46:17.514Z,100.00
2022-09-10T10:47:38.312Z,100.00
2022-09-10T10:48:42.140Z,100.00
2022-09-10T10:49:48.919Z,100.00
2022-09-10T10:51:07.778Z,100.00
2022-09-10T10:52:28.222Z,100.00
2022-09-10T10:53:41.130Z,100.00
2022-09-10T10:54:50.696Z,100.00
2022-09-10T10:55:54.409Z,100.00
2022-09-10T10:57:01.315Z,100.00
2022-09-10T10:58:08.189Z,100.00
2022-09-10T10:59:20.879Z,100.00
2022-09-10T11:00:22.971Z,100.00
2022-09-10T11:01:27.064Z,100.00
2022-09-10T11:02:40.451Z,100.00
2022-09-10T11:04:00.953Z,100.00
2022-09-10T11:05:08.184Z,100.00
2022-09-10T11:06:11.914Z,100.00
2022-09-10T11:07:15.785Z,100.00
2022-09-10T11:08:19.617Z,100.00
2022-09-10T11:09:26.123Z,100.00
2022-09-10T11:10:36.380Z,100.00
2022-09-10T11:11:40.369Z,100.00
2022-09-10T11:12:47.211Z,100.00
2022-09-10T11:13:51.209Z,100.00
2022-09-10T11:14:55.242Z,100.00
2022-09-10T11:16:01.888Z,100.00
2022-09-10T11:17:11.549Z,100.00
2022-09-10T11:18:15.368Z,100.00
2022-09-10T11:19:28.084Z,100.00
2022-09-10T11:20:31.887Z,100.00
2022-09-10T11:21:35.702Z,100.00
2022-09-10T11:22:39.531Z,100.00
2022-09-10T11:23:43.468Z,100.00
2022-09-10T11:24:47.298Z,100.00
2022-09-10T11:26:07.988Z,100.00
2022-09-10T11:27:11.814Z,100.00
2022-09-10T11:28:15.502Z,100.00
2022-09-10T11:29:22.267Z,100.00
2022-09-10T11:30:24.491Z,100.00
2022-09-10T11:31:34.237Z,100.00
2022-09-10T11:32:38.063Z,100.00
2022-09-10T11:33:42.100Z,100.00
2022-09-10T11:35:01.146Z,100.00
2022-09-10T11:36:04.955Z,100.00
2022-09-10T11:37:11.934Z,100.00
2022-09-10T11:38:18.490Z,100.00
2022-09-10T11:39:37.461Z,100.00
2022-09-10T11:40:41.390Z,100.00
2022-09-10T11:41:45.199Z,100.00
2022-09-10T11:42:49.081Z,100.00
2022-09-10T11:43:55.799Z,100.00
2022-09-10T11:45:01.139Z,100.00
2022-09-10T11:46:06.387Z,100.00
2022-09-10T11:47:25.564Z,100.00
2022-09-10T11:48:32.397Z,100.00
2022-09-10T11:49:48.479Z,100.00
2022-09-10T11:50:56.193Z,100.00
2022-09-10T11:51:58.132Z,100.00
2022-09-10T11:53:00.349Z,100.00
2022-09-10T11:54:04.025Z,100.00
2022-09-10T11:55:06.578Z,100.00
2022-09-10T11:56:13.483Z,100.00
2022-09-10T11:57:20.004Z,100.00
2022-09-10T11:58:36.047Z,100.00
2022-09-10T11:59:42.775Z,100.00
2022-09-10T12:00:52.398Z,100.00
2022-09-10T12:02:08.283Z,100.00
2022-09-10T12:03:28.949Z,100.00
2022-09-10T12:04:45.648Z,100.00
2022-09-10T12:06:04.660Z,100.00
2022-09-10T12:07:25.076Z,100.00
2022-09-10T12:08:34.576Z,100.00
2022-09-10T12:09:50.474Z,100.00
2022-09-10T12:11:11.149Z,100.00
2022-09-10T12:12:17.858Z,100.00
2022-09-10T12:13:20.052Z,100.00
2022-09-10T12:14:22.544Z,100.00
2022-09-10T12:15:26.788Z,100.00
2022-09-10T12:16:36.553Z,100.00
2022-09-10T12:17:40.383Z,100.00
2022-09-10T12:18:44.063Z,100.00
2022-09-10T12:19:47.748Z,100.00
2022-09-10T12:20:57.371Z,100.00
2022-09-10T12:22:01.178Z,100.00
2022-09-10T12:23:04.265Z,100.00
2022-09-10T12:24:08.003Z,100.00
2022-09-10T12:25:17.582Z,100.00
2022-09-10T12:26:20.277Z,100.00
2022-09-10T12:27:24.110Z,100.00
2022-09-10T12:28:43.257Z,100.00
2022-09-10T12:29:45.211Z,100.00
2022-09-10T12:30:51.284Z,100.00
2022-09-10T12:32:10.489Z,100.00
2022-09-10T12:33:14.312Z,100.00
2022-09-10T12:34:17.160Z,100.00
2022-09-10T12:35:27.157Z,100.00
2022-09-10T12:36:31.069Z,100.00
2022-09-10T12:37:33.145Z,100.00
2022-09-10T12:38:45.840Z,100.00
2022-09-10T12:39:48.483Z,100.00
2022-09-10T12:40:50.341Z,100.00
2022-09-10T12:41:54.222Z,100.00
2022-09-10T12:42:57.232Z,100.00
2022-09-10T12:44:00.462Z,100.00
2022-09-10T12:45:02.533Z,100.00
2022-09-10T12:46:06.325Z,100.00
2022-09-10T12:47:16.307Z,100.00
2022-09-10T12:48:18.233Z,100.00
2022-09-10T12:49:20.492Z,100.00
2022-09-10T12:50:27.436Z,100.00
2022-09-10T12:51:33.895Z,100.00
2022-09-10T12:52:37.702Z,100.00
2022-09-10T12:53:56.445Z,100.00
2022-09-10T12:55:03.458Z,100.00
2022-09-10T12:56:15.681Z,100.00
2022-09-10T12:57:21.765Z,100.00
2022-09-10T12:58:25.428Z,100.00
2022-09-10T12:59:41.386Z,100.00
2022-09-10T13:00:45.736Z,100.00
2022-09-10T13:01:48.749Z,100.00
2022-09-10T13:02:52.851Z,100.00
2022-09-10T13:03:59.177Z,100.00
2022-09-10T13:05:02.864Z,100.00
2022-09-10T13:06:05.572Z,100.00
2022-09-10T13:07:18.705Z,100.00
2022-09-10T13:08:40.833Z,100.00
2022-09-10T13:09:42.761Z,100.00
2022-09-10T13:10:49.759Z,100.00
2022-09-10T13:11:53.301Z,100.00
2022-09-10T13:12:57.133Z,100.00
2022-09-10T13:14:00.938Z,100.00
2022-09-10T13:15:03.274Z,100.00
2022-09-10T13:16:07.231Z,100.00
2022-09-10T13:17:11.063Z,100.00
2022-09-10T13:18:14.893Z,100.00
2022-09-10T13:19:18.576Z,100.00
2022-09-10T13:20:22.763Z,100.00
2022-09-10T13:21:26.590Z,100.00
2022-09-10T13:22:33.094Z,100.00
2022-09-10T13:23:43.331Z,100.00
2022-09-10T13:25:02.037Z,100.00
2022-09-10T13:26:22.825Z,100.00
2022-09-10T13:27:40.078Z,100.00
2022-09-10T13:28:43.848Z,100.00
2022-09-10T13:29:47.628Z,100.00
2022-09-10T13:30:51.455Z,100.00